createdAt,value
2018-12-10T00:02:39.811Z,99738.80
2018-12-10T00:05:27.948Z,99737.78
2018-12-10T00:08:15.754Z,99753.02
2018-12-10T00:11:03.015Z,99748.05
2018-12-10T00:13:51.888Z,99750.89
2018-12-10T00:16:39.037Z,99753.22
2018-12-10T00:19:26.338Z,99760.27
2018-12-10T00:22:16.141Z,99781.22
2018-12-10T00:25:04.340Z,99782.84
2018-12-10T00:27:51.766Z,99787.37
2018-12-10T00:30:39.934Z,99775.66
2018-12-10T00:33:28.017Z,99783.59
2018-12-10T00:36:18.196Z,99791.22
2018-12-10T00:39:05.617Z,99799.53
2018-12-10T00:41:53.118Z,99808.94
2018-12-10T00:44:40.225Z,99802.48
2018-12-10T00:47:27.845Z,99808.25
2018-12-10T00:50:15.290Z,99820.47
2018-12-10T00:53:04.393Z,99820.59
2018-12-10T00:55:52.670Z,99830.19
2018-12-10T00:58:39.845Z,99822.72
2018-12-10T01:01:27.051Z,99832.05
2018-12-10T01:04:14.360Z,99841.37
2018-12-10T01:07:01.591Z,99840.44
2018-12-10T01:09:52.252Z,99843.07
2018-12-10T01:12:39.253Z,99836.76
2018-12-10T01:15:26.889Z,99842.77
2018-12-10T01:18:14.859Z,99836.70
2018-12-10T01:24:08.368Z,99861.63
2018-12-10T01:26:55.820Z,99861.93
2018-12-10T01:29:42.993Z,99875.20
2018-12-10T01:32:30.153Z,99876.11
2018-12-10T01:35:17.405Z,99870.77
2018-12-10T01:38:05.663Z,99888.32
2018-12-10T01:40:53.694Z,99885.23
2018-12-10T01:43:41.593Z,99883.91
2018-12-10T01:46:29.210Z,99879.85
2018-12-10T01:49:16.328Z,99891.72
2018-12-10T01:52:03.954Z,99901.59
2018-12-10T01:54:51.253Z,99900.82
2018-12-10T01:57:38.245Z,99906.97
2018-12-10T02:00:25.353Z,99912.61
2018-12-10T02:03:14.157Z,99915.23
2018-12-10T02:06:00.908Z,99930.08
2018-12-10T02:08:49.351Z,99920.92
2018-12-10T02:11:36.769Z,99928.66
2018-12-10T02:14:24.600Z,99930.39
2018-12-10T02:17:11.404Z,99937.78
2018-12-10T02:19:58.212Z,99927.77
2018-12-10T02:22:45.417Z,99938.90
2018-12-10T02:25:32.133Z,99935.07
2018-12-10T02:28:37.665Z,99938.49
2018-12-10T02:31:24.813Z,99944.38
2018-12-10T02:34:12.522Z,99956.25
2018-12-10T02:36:59.934Z,99956.95
2018-12-10T02:39:47.165Z,99952.66
2018-12-10T02:42:34.253Z,99959.43
2018-12-10T02:45:21.383Z,99962.41
2018-12-10T02:48:08.685Z,99958.83
2018-12-10T02:50:57.045Z,99963.99
2018-12-10T02:53:44.633Z,99971.09
2018-12-10T02:56:33.224Z,99971.25
2018-12-10T02:59:20.178Z,99994.38
2018-12-10T03:02:07.569Z,99985.53
2018-12-10T03:04:54.736Z,99989.45
2018-12-10T03:07:41.577Z,99980.23
2018-12-10T03:10:28.942Z,99996.43
2018-12-10T03:13:16.292Z,99991.65
2018-12-10T03:16:03.147Z,100004.89
2018-12-10T03:18:50.101Z,100003.69
2018-12-10T03:21:37.648Z,100004.22
2018-12-10T03:24:25.006Z,100005.89
2018-12-10T03:27:11.855Z,100004.43
2018-12-10T03:29:59.142Z,100021.39
2018-12-10T03:35:52.540Z,100022.22
2018-12-10T03:38:39.316Z,100021.72
2018-12-10T03:41:26.838Z,100014.72
2018-12-10T03:44:14.058Z,100039.70
2018-12-10T03:47:01.010Z,100052.63
2018-12-10T03:49:48.296Z,100043.94
2018-12-10T03:52:35.659Z,100039.25
2018-12-10T03:55:22.997Z,100045.81
2018-12-10T03:58:10.191Z,100039.64
2018-12-10T04:00:57.472Z,100043.94
2018-12-10T04:03:44.904Z,100039.09
2018-12-10T04:06:32.101Z,100058.27
2018-12-10T04:09:18.869Z,100041.38
2018-12-10T04:12:17.161Z,100052.69
2018-12-10T04:15:04.077Z,100068.49
2018-12-10T04:17:51.617Z,100057.36
2018-12-10T04:20:40.088Z,100072.01
2018-12-10T04:23:27.614Z,100070.38
2018-12-10T04:26:14.717Z,100074.80
2018-12-10T04:29:01.539Z,100074.84
2018-12-10T04:31:48.756Z,100084.81
2018-12-10T04:34:36.160Z,100078.61
2018-12-10T04:37:23.910Z,100080.06
2018-12-10T04:40:11.437Z,100098.47
2018-12-10T04:42:58.717Z,100101.91
2018-12-10T04:45:46.930Z,100104.94
2018-12-10T04:48:33.769Z,100107.83
2018-12-10T04:51:21.951Z,100113.97
2018-12-10T04:54:08.919Z,100110.91
2018-12-10T04:56:57.102Z,100122.66
2018-12-10T04:59:52.565Z,100111.56
2018-12-10T05:02:31.289Z,100121.15
2018-12-10T05:05:18.103Z,100129.67
2018-12-10T05:08:05.501Z,100136.55
2018-12-10T05:10:51.756Z,100123.70
2018-12-10T05:13:39.070Z,100124.12
2018-12-10T05:16:26.316Z,100121.75
2018-12-10T05:19:13.141Z,100134.77
2018-12-10T05:22:02.147Z,100134.51
2018-12-10T05:24:48.989Z,100141.56
2018-12-10T05:27:37.774Z,100147.06
2018-12-10T05:30:25.014Z,100151.95
2018-12-10T05:33:13.557Z,100159.37
2018-12-10T05:36:00.339Z,100147.95
2018-12-10T05:38:48.024Z,100161.96
2018-12-10T05:41:36.116Z,100166.79
2018-12-10T05:44:23.003Z,100177.33
2018-12-10T05:47:10.320Z,100174.86
2018-12-10T05:49:59.739Z,100172.31
2018-12-10T05:52:46.908Z,100176.67
2018-12-10T05:55:34.321Z,100186.72
2018-12-10T05:58:22.457Z,100195.03
2018-12-10T06:01:09.337Z,100190.34
2018-12-10T06:03:57.287Z,100188.25
2018-12-10T06:06:44.787Z,100189.34
2018-12-10T06:09:31.862Z,100194.46
2018-12-10T06:12:20.142Z,100196.63
2018-12-10T06:15:07.683Z,100208.52
2018-12-10T06:17:54.715Z,100207.78
2018-12-10T06:20:41.635Z,100209.98
2018-12-10T06:23:29.103Z,100218.52
2018-12-10T06:26:16.645Z,100219.89
2018-12-10T06:29:05.685Z,100216.61
2018-12-10T06:31:52.556Z,100214.94
2018-12-10T06:34:39.472Z,100224.19
2018-12-10T06:37:26.992Z,100219.39
2018-12-10T06:40:13.899Z,100230.35
2018-12-10T06:46:08.967Z,100239.11
2018-12-10T06:48:56.183Z,100241.25
2018-12-10T06:51:43.523Z,100244.33
2018-12-10T06:54:31.174Z,100243.78
2018-12-10T06:57:19.108Z,100251.59
2018-12-10T07:00:07.000Z,100260.47
2018-12-10T07:02:54.850Z,100257.95
2018-12-10T07:05:41.911Z,100260.86
2018-12-10T07:08:29.522Z,100262.00
2018-12-10T07:11:16.826Z,100265.60
2018-12-10T07:14:04.366Z,100272.13
2018-12-10T07:16:51.442Z,100281.42
2018-12-10T07:19:40.232Z,100280.66
2018-12-10T07:22:29.606Z,100290.03
2018-12-10T07:25:17.017Z,100292.84
2018-12-10T07:28:04.297Z,100297.02
2018-12-10T07:30:51.588Z,100298.80
2018-12-10T07:33:38.876Z,100301.04
2018-12-10T07:36:26.117Z,100305.73
2018-12-10T07:39:12.908Z,100308.36
2018-12-10T07:45:09.928Z,100313.74
2018-12-10T07:47:57.686Z,100321.41
2018-12-10T07:50:44.807Z,100324.60
2018-12-10T07:53:32.034Z,100321.19
2018-12-10T07:56:18.942Z,100328.69
2018-12-10T07:59:06.105Z,100324.78
2018-12-10T08:01:53.679Z,100333.80
2018-12-10T08:04:40.789Z,100331.18
2018-12-10T08:07:27.652Z,100344.48
2018-12-10T08:10:14.638Z,100354.08
2018-12-10T08:13:01.369Z,100355.05
2018-12-10T08:15:49.755Z,100364.91
2018-12-10T08:18:36.828Z,100370.84
2018-12-10T08:21:23.681Z,100375.97
2018-12-10T08:24:10.996Z,100368.78
2018-12-10T08:26:58.254Z,100369.06
2018-12-10T08:29:45.594Z,100375.33
2018-12-10T08:32:32.647Z,100375.87
2018-12-10T08:35:19.928Z,100374.73
2018-12-10T08:38:07.962Z,100365.42
2018-12-10T08:40:55.216Z,100372.35
2018-12-10T08:43:42.636Z,100375.53
2018-12-10T08:46:30.236Z,100392.70
2018-12-10T08:49:17.456Z,100385.77
2018-12-10T08:52:04.539Z,100388.30
2018-12-10T08:54:54.082Z,100387.65
2018-12-10T08:57:41.342Z,100398.69
2018-12-10T09:00:28.393Z,100404.50
2018-12-10T09:03:15.416Z,100410.69
2018-12-10T09:06:02.628Z,100413.95
2018-12-10T09:08:49.845Z,100408.41
2018-12-10T09:11:37.317Z,100419.70
2018-12-10T09:14:24.136Z,100418.05
2018-12-10T09:17:10.952Z,100421.00
2018-12-10T09:19:58.064Z,100416.28
2018-12-10T09:22:44.898Z,100424.77
2018-12-10T09:25:32.139Z,100415.66
2018-12-10T09:28:19.826Z,100422.23
2018-12-10T09:31:06.403Z,100422.33
2018-12-10T09:33:54.381Z,100422.81
2018-12-10T09:36:41.964Z,100416.55
2018-12-10T09:39:30.240Z,100425.73
2018-12-10T09:42:16.219Z,100419.34
2018-12-10T09:45:03.169Z,100418.64
2018-12-10T09:47:50.185Z,100420.35
2018-12-10T09:50:37.138Z,100425.81
2018-12-10T09:53:24.511Z,100425.67
2018-12-10T09:56:11.944Z,100425.08
2018-12-10T09:58:59.098Z,100428.68
2018-12-10T10:01:46.309Z,100430.65
2018-12-10T10:04:33.834Z,100434.35
2018-12-10T10:07:28.444Z,100432.20
2018-12-10T10:10:10.990Z,100427.37
2018-12-10T10:12:57.806Z,100432.50
2018-12-10T10:15:44.720Z,100432.17
2018-12-10T10:18:31.521Z,100430.98
2018-12-10T10:21:18.741Z,100439.69
2018-12-10T10:24:06.266Z,100436.88
2018-12-10T10:26:53.235Z,100431.33
2018-12-10T10:29:40.162Z,100423.37
2018-12-10T10:32:27.300Z,100426.01
2018-12-10T10:35:14.374Z,100430.15
2018-12-10T10:38:01.381Z,100427.48
2018-12-10T10:40:48.196Z,100427.41
2018-12-10T10:43:35.393Z,100431.56
2018-12-10T10:46:24.729Z,100421.23
2018-12-10T10:49:14.363Z,100418.25
2018-12-10T10:52:01.918Z,100424.86
2018-12-10T10:54:49.175Z,100419.50
2018-12-10T10:57:38.826Z,100419.30
2018-12-10T11:00:44.143Z,100419.03
2018-12-10T11:03:37.608Z,100430.11
2018-12-10T11:06:24.748Z,100415.87
2018-12-10T11:09:15.510Z,100417.39
2018-12-10T11:12:00.175Z,100425.38
2018-12-10T11:14:47.629Z,100409.21
2018-12-10T11:17:35.641Z,100411.58
2018-12-10T11:20:22.811Z,100416.31
2018-12-10T11:23:10.138Z,100405.95
2018-12-10T11:25:57.908Z,100406.22
2018-12-10T11:28:45.997Z,100406.78
2018-12-10T11:31:33.973Z,100409.77
2018-12-10T11:34:22.318Z,100403.07
2018-12-10T11:37:09.583Z,100401.58
2018-12-10T11:39:56.934Z,100403.35
2018-12-10T11:42:44.019Z,100397.41
2018-12-10T11:45:31.427Z,100389.78
2018-12-10T11:48:21.802Z,100391.12
2018-12-10T11:51:09.625Z,100394.94
2018-12-10T11:53:56.908Z,100390.18
2018-12-10T11:56:44.060Z,100385.97
2018-12-10T11:59:32.499Z,100387.77
2018-12-10T12:02:20.652Z,100391.84
2018-12-10T12:05:09.902Z,100401.25
2018-12-10T12:07:57.467Z,100395.30
2018-12-10T12:10:45.305Z,100405.83
2018-12-10T12:13:36.562Z,100389.78
2018-12-10T12:19:33.589Z,100387.48
2018-12-10T12:22:23.052Z,100392.96
2018-12-10T12:25:10.075Z,100384.48
2018-12-10T12:27:58.154Z,100392.89
2018-12-10T12:30:47.383Z,100390.31
2018-12-10T12:33:38.449Z,100381.15
2018-12-10T12:36:29.398Z,100391.33
2018-12-10T12:39:19.719Z,100392.28
2018-12-10T12:42:11.364Z,100389.27
2018-12-10T12:45:01.098Z,100394.74
2018-12-10T12:47:51.170Z,100387.94
2018-12-10T12:50:40.390Z,100392.96
2018-12-10T12:53:28.065Z,100380.67
2018-12-10T12:56:15.256Z,100377.77
2018-12-10T12:59:09.824Z,100376.94
2018-12-10T13:01:58.944Z,100386.23
2018-12-10T13:04:47.567Z,100385.05
2018-12-10T13:07:36.102Z,100377.75
2018-12-10T13:13:32.551Z,100382.77
2018-12-10T13:16:20.100Z,100391.02
2018-12-10T13:19:07.462Z,100383.56
2018-12-10T13:21:55.266Z,100381.13
2018-12-10T13:27:48.944Z,100377.36
2018-12-10T13:33:42.864Z,100372.10
2018-12-10T13:36:30.651Z,100371.52
2018-12-10T13:39:17.966Z,100380.16
2018-12-10T13:42:06.376Z,100377.59
2018-12-10T13:44:53.951Z,100377.09
2018-12-10T13:47:41.111Z,100380.91
2018-12-10T13:50:27.999Z,100388.96
2018-12-10T13:53:15.008Z,100393.23
2018-12-10T13:56:02.674Z,100392.84
2018-12-10T13:58:51.681Z,100398.91
2018-12-10T14:01:40.968Z,100406.41
2018-12-10T14:04:29.237Z,100409.02
2018-12-10T14:07:21.923Z,100405.70
2018-12-10T14:10:50.678Z,100420.22
2018-12-10T14:13:40.640Z,100423.42
2018-12-10T14:16:28.626Z,100420.40
2018-12-10T14:19:17.404Z,100424.89
2018-12-10T14:22:09.984Z,100432.28
2018-12-10T14:24:57.269Z,100434.05
2018-12-10T14:27:45.842Z,100436.11
2018-12-10T14:33:19.529Z,100421.59
2018-12-10T14:36:07.081Z,100425.88
2018-12-10T14:38:54.812Z,100426.41
2018-12-10T14:41:43.652Z,100432.41
2018-12-10T14:44:30.796Z,100436.55
2018-12-10T14:47:22.915Z,100434.64
2018-12-10T14:50:11.057Z,100424.73
2018-12-10T14:52:59.515Z,100434.81
2018-12-10T14:55:46.486Z,100431.96
2018-12-10T14:58:34.038Z,100439.27
2018-12-10T15:01:22.869Z,100435.97
2018-12-10T15:04:12.015Z,100439.27
2018-12-10T15:06:59.461Z,100430.88
2018-12-10T15:09:46.901Z,100430.55
2018-12-10T15:12:35.780Z,100428.70
2018-12-10T15:15:23.459Z,100439.50
2018-12-10T15:18:10.931Z,100429.60
2018-12-10T15:21:00.046Z,100438.47
2018-12-10T15:26:54.415Z,100437.19
2018-12-10T15:29:41.597Z,100440.93
2018-12-10T15:32:28.577Z,100435.52
2018-12-10T15:35:16.045Z,100437.11
2018-12-10T15:38:04.368Z,100436.05
2018-12-10T15:44:01.489Z,100423.19
2018-12-10T15:46:49.256Z,100426.94
2018-12-10T15:49:36.594Z,100432.63
2018-12-10T15:52:39.448Z,100424.41
2018-12-10T15:55:27.796Z,100429.76
2018-12-10T15:58:30.498Z,100433.37
2018-12-10T16:04:24.564Z,100433.98
2018-12-10T16:07:12.799Z,100432.94
2018-12-10T16:09:59.864Z,100436.52
2018-12-10T16:12:49.428Z,100433.12
2018-12-10T16:18:54.265Z,100426.47
2018-12-10T16:21:41.928Z,100427.59
2018-12-10T16:24:30.083Z,100432.48
2018-12-10T16:27:17.256Z,100429.11
2018-12-10T16:30:07.432Z,100415.41
2018-12-10T16:32:55.007Z,100426.77
2018-12-10T16:35:43.146Z,100420.17
2018-12-10T16:38:31.653Z,100413.61
2018-12-10T16:41:18.493Z,100415.11
2018-12-10T16:44:06.106Z,100414.65
2018-12-10T16:46:55.246Z,100417.80
2018-12-10T16:49:43.048Z,100414.05
2018-12-10T16:56:44.904Z,100418.11
2018-12-10T16:59:34.226Z,100410.33
2018-12-10T17:03:03.766Z,100411.77
2018-12-10T17:05:56.320Z,100421.42
2018-12-10T17:08:44.171Z,100413.13
2018-12-10T17:11:36.581Z,100409.20
2018-12-10T17:14:26.629Z,100411.47
2018-12-10T17:17:22.849Z,100402.33
2018-12-10T17:20:09.783Z,100409.81
2018-12-10T17:23:00.181Z,100400.64
2018-12-10T17:28:56.507Z,100404.27
2018-12-10T17:32:40.232Z,100395.04
2018-12-10T17:35:27.472Z,100408.69
2018-12-10T17:38:15.137Z,100407.14
2018-12-10T17:41:06.682Z,100410.44
2018-12-10T17:43:54.517Z,100405.68
2018-12-10T17:46:45.928Z,100417.67
2018-12-10T17:49:33.091Z,100416.72
2018-12-10T17:52:33.831Z,100416.16
2018-12-10T17:55:22.855Z,100414.25
2018-12-10T17:58:10.557Z,100409.89
2018-12-10T18:00:58.628Z,100416.52
2018-12-10T18:03:47.302Z,100419.44
2018-12-10T18:06:35.065Z,100417.72
2018-12-10T18:09:23.064Z,100411.62
2018-12-10T18:12:10.754Z,100417.34
2018-12-10T18:15:02.395Z,100416.01
2018-12-10T18:17:50.599Z,100412.30
2018-12-10T18:20:38.893Z,100418.31
2018-12-10T18:23:28.249Z,100413.83
2018-12-10T18:26:15.628Z,100410.77
2018-12-10T18:29:04.615Z,100405.95
2018-12-10T18:31:52.899Z,100405.67
2018-12-10T18:34:40.733Z,100407.09
2018-12-10T18:37:28.113Z,100408.98
2018-12-10T18:40:15.959Z,100408.52
2018-12-10T18:43:03.809Z,100406.30
2018-12-10T18:45:52.169Z,100406.73
2018-12-10T18:48:39.505Z,100409.83
2018-12-10T18:51:27.049Z,100424.94
2018-12-10T18:54:16.505Z,100407.69
2018-12-10T18:57:04.228Z,100398.73
2018-12-10T18:59:51.087Z,100394.18
2018-12-10T19:02:39.535Z,100403.47
2018-12-10T19:05:30.121Z,100402.83
2018-12-10T19:08:17.391Z,100402.77
2018-12-10T19:11:04.761Z,100399.29
2018-12-10T19:13:52.044Z,100398.72
2018-12-10T19:16:43.067Z,100395.83
2018-12-10T19:19:30.688Z,100410.30
2018-12-10T19:22:25.421Z,100411.70
2018-12-10T19:25:14.818Z,100422.41
2018-12-10T19:28:02.979Z,100414.97
2018-12-10T19:30:51.285Z,100407.14
2018-12-10T19:33:42.131Z,100413.61
2018-12-10T19:36:33.440Z,100412.25
2018-12-10T19:39:31.234Z,100422.61
2018-12-10T19:42:27.308Z,100419.78
2018-12-10T19:45:15.486Z,100416.95
2018-12-10T19:48:07.198Z,100401.59
2018-12-10T19:51:05.898Z,100413.04
2018-12-10T19:53:54.776Z,100395.89
2018-12-10T19:56:46.038Z,100406.48
2018-12-10T19:59:34.550Z,100404.16
2018-12-10T20:02:23.430Z,100407.64
2018-12-10T20:08:25.866Z,100412.48
2018-12-10T20:11:13.468Z,100413.84
2018-12-10T20:14:08.240Z,100414.55
2018-12-10T20:16:55.356Z,100409.47
2018-12-10T20:19:45.831Z,100408.71
2018-12-10T20:22:38.217Z,100408.83
2018-12-10T20:25:44.663Z,100411.14
2018-12-10T20:28:35.565Z,100403.86
2018-12-10T20:31:29.038Z,100393.96
2018-12-10T20:34:18.612Z,100392.87
2018-12-10T20:37:07.547Z,100400.86
2018-12-10T20:39:57.409Z,100411.45
2018-12-10T20:42:47.090Z,100406.71
2018-12-10T20:45:34.657Z,100416.36
2018-12-10T20:48:35.705Z,100407.59
2018-12-10T20:51:23.509Z,100411.42
2018-12-10T20:54:15.139Z,100400.30
2018-12-10T20:57:02.941Z,100386.02
2018-12-10T20:59:50.877Z,100400.57
2018-12-10T21:02:41.516Z,100405.10
2018-12-10T21:05:32.813Z,100402.64
2018-12-10T21:08:20.119Z,100407.95
2018-12-10T21:14:16.615Z,100409.34
2018-12-10T21:17:04.389Z,100389.80
2018-12-10T21:23:00.001Z,100396.50
2018-12-10T21:25:47.378Z,100383.83
2018-12-10T21:34:52.035Z,100380.88
2018-12-10T21:37:43.096Z,100385.35
2018-12-10T21:46:56.912Z,100384.34
2018-12-10T21:49:47.228Z,100377.80
2018-12-10T21:52:34.966Z,100379.64
2018-12-10T21:55:23.198Z,100376.55
2018-12-10T21:58:16.344Z,100375.45
2018-12-10T22:01:07.843Z,100379.09
2018-12-10T22:04:07.158Z,100383.23
2018-12-10T22:06:54.683Z,100369.22
2018-12-10T22:09:46.064Z,100362.72
2018-12-10T22:12:42.082Z,100369.61
2018-12-10T22:15:30.433Z,100367.84
2018-12-10T22:18:17.795Z,100368.72
2018-12-10T22:21:05.028Z,100362.23
2018-12-10T22:23:52.214Z,100372.28
2018-12-10T22:26:40.442Z,100376.64
2018-12-10T22:29:31.802Z,100376.69
2018-12-10T22:32:28.319Z,100365.76
2018-12-10T22:35:15.728Z,100374.05
2018-12-10T22:38:02.949Z,100366.69
2018-12-10T22:40:50.303Z,100370.27
2018-12-10T22:43:37.997Z,100371.01
2018-12-10T22:46:25.206Z,100375.87
2018-12-10T22:49:13.137Z,100372.42
2018-12-10T22:52:01.585Z,100367.61
2018-12-10T22:54:49.246Z,100377.88
2018-12-10T22:57:37.805Z,100376.98
2018-12-10T23:00:25.081Z,100373.69
2018-12-10T23:03:12.678Z,100387.23
2018-12-10T23:06:00.514Z,100397.77
2018-12-10T23:08:48.652Z,100384.55
2018-12-10T23:11:35.848Z,100377.27
2018-12-10T23:14:24.747Z,100374.67
2018-12-10T23:17:15.766Z,100370.40
2018-12-10T23:20:02.542Z,100384.73
2018-12-10T23:22:50.883Z,100378.34
2018-12-10T23:25:38.672Z,100372.44
2018-12-10T23:28:25.925Z,100372.34
2018-12-10T23:31:14.781Z,100368.58
2018-12-10T23:37:10.308Z,100389.47
2018-12-10T23:39:58.316Z,100374.65
2018-12-10T23:43:04.923Z,100379.06
2018-12-10T23:45:52.067Z,100403.37
2018-12-10T23:48:40.319Z,100384.73
2018-12-10T23:51:27.227Z,100382.22
2018-12-10T23:54:30.615Z,100390.59
2018-12-10T23:57:17.754Z,100381.05
